Terminal Aerodrome Forecast
Issued by NWS Sioux Falls, SD

Home | Current Version | Previous Version | Text Only | Print | Product List | Glossary On
Versions: 1 2 3 4 5 6 7 8 9 10 11 12 13 14 15
000
FTUS43 KFSD 131720
TAFHON
TAF
KHON 131720Z 1318/1418 19018G25KT P6SM SCT040
     FM132200 20014G21KT P6SM SCT040
     FM140000 22007KT P6SM SCT250
     FM140800 30005KT P6SM SCT250=

USA.gov is the U.S. government's official web portal to all federal, state and local government web resources and services.